Time;durP1;ratioP1;P1;durP2;ratioP2;P2;SDS_P1;SDS_P2;PMS_P1;PMS_P2;Temp;Humidity;BMP_temperature;BMP_pressure;BME280_temperature;BME280_humidity;BME280_pressure;Samples;Min_cycle;Max_cycle;Signal;HPM_P1;HPM_P2
2023/09/01 00:00:24;;;;;;;2.77;0.87;;;13.50;99.90;;;;;;5140984;27;20051;-41
2023/09/01 00:02:51;;;;;;;1.50;0.70;;;13.50;99.90;;;;;;5141305;27;20047;-40
2023/09/01 00:05:16;;;;;;;;;;;13.50;99.90;;;;;;5141680;27;20041;-40
2023/09/01 00:07:42;;;;;;;2.22;0.70;;;13.50;99.90;;;;;;5141341;27;20013;-40
2023/09/01 00:10:08;;;;;;;1.77;0.60;;;13.50;99.90;;;;;;5140958;27;20050;-40
2023/09/01 00:12:34;;;;;;;3.25;0.80;;;13.50;99.90;;;;;;5140980;27;20050;-41
2023/09/01 00:14:59;;;;;;;6.83;1.23;;;13.50;99.90;;;;;;5122901;27;20043;-40
2023/09/01 00:17:25;;;;;;;2.40;0.63;;;13.50;99.90;;;;;;5141142;27;20288;-41
2023/09/01 00:19:51;;;;;;;2.67;0.90;;;13.50;99.90;;;;;;5141412;27;20039;-40
2023/09/01 00:22:16;;;;;;;2.07;0.70;;;13.50;99.90;;;;;;5141157;27;20039;-40
2023/09/01 00:24:42;;;;;;;2.10;0.80;;;13.50;99.90;;;;;;5141040;27;20610;-40
2023/09/01 00:27:07;;;;;;;3.33;0.80;;;13.40;99.90;;;;;;5140876;27;20065;-40
2023/09/01 00:29:34;;;;;;;2.43;1.20;;;13.40;99.90;;;;;;5140866;27;20043;-40
2023/09/01 00:32:00;;;;;;;;;;;13.40;99.90;;;;;;5141401;27;20135;-40
2023/09/01 00:34:26;;;;;;;2.75;0.80;;;13.40;99.90;;;;;;5141078;27;19920;-40
2023/09/01 00:36:52;;;;;;;4.40;0.90;;;13.40;99.90;;;;;;5140931;27;20049;-40
2023/09/01 00:39:17;;;;;;;2.97;0.95;;;13.40;99.90;;;;;;5140706;27;20288;-40
2023/09/01 00:41:43;;;;;;;3.00;0.83;;;13.40;99.90;;;;;;5140590;27;20043;-41
2023/09/01 00:44:13;;;;;;;3.22;1.23;;;13.30;99.90;;;;;;5122812;27;20281;-40
2023/09/01 00:46:43;;;;;;;3.15;0.90;;;13.40;99.90;;;;;;5140895;27;20461;-40
2023/09/01 00:49:10;;;;;;;1.42;0.60;;;13.40;99.90;;;;;;5140922;27;20078;-40
2023/09/01 00:51:37;;;;;;;1.50;0.68;;;13.30;99.90;;;;;;5141063;27;20114;-40
2023/09/01 00:54:03;;;;;;;1.98;0.70;;;13.30;99.90;;;;;;5138435;27;20047;-40
2023/09/01 00:56:29;;;;;;;1.83;0.65;;;13.30;99.90;;;;;;5137300;27;20138;-40
2023/09/01 00:58:54;;;;;;;2.47;0.80;;;13.30;99.90;;;;;;5137447;27;20138;-40
2023/09/01 01:01:20;;;;;;;2.90;0.87;;;13.20;99.90;;;;;;5137401;27;20132;-40
2023/09/01 01:03:49;;;;;;;1.73;0.55;;;13.20;99.90;;;;;;5137532;27;20051;-40
2023/09/01 01:06:44;;;;;;;2.00;0.80;;;13.10;99.90;;;;;;5137398;27;20059;-40
2023/09/01 01:09:34;;;;;;;3.25;1.00;;;13.00;99.90;;;;;;5081543;27;20052;-40
2023/09/01 01:11:59;;;;;;;3.05;1.15;;;13.00;99.90;;;;;;5137280;27;20047;-40
2023/09/01 01:14:30;;;;;;;3.37;1.57;;;13.00;99.90;;;;;;5119173;27;20096;-40
2023/09/01 01:16:57;;;;;;;4.38;1.10;;;12.90;99.90;;;;;;5137165;27;20086;-40
2023/09/01 01:19:49;;;;;;;3.13;1.52;;;12.90;99.90;;;;;;5136881;27;20078;-41
2023/09/01 01:22:39;;;;;;;5.20;2.45;;;12.80;99.90;;;;;;5137289;27;20099;-41
2023/09/01 01:25:14;;;;;;;6.50;2.90;;;12.80;99.90;;;;;;5137068;27;20084;-40
2023/09/01 01:27:41;;;;;;;6.70;2.47;;;12.80;99.90;;;;;;5136872;27;20134;-40
2023/09/01 01:30:09;;;;;;;6.38;2.58;;;12.80;99.90;;;;;;5136671;27;20054;-40
2023/09/01 01:32:36;;;;;;;4.55;1.90;;;12.80;99.90;;;;;;5136925;27;20078;-40
2023/09/01 01:35:04;;;;;;;;;;;12.80;99.90;;;;;;5137231;27;20039;-41
2023/09/01 01:37:42;;;;;;;4.90;2.03;;;12.80;99.90;;;;;;5136745;27;19919;-40
2023/09/01 01:40:09;;;;;;;3.80;1.42;;;12.80;99.90;;;;;;5136542;27;20100;-41
2023/09/01 01:42:36;;;;;;;4.45;1.83;;;12.70;99.90;;;;;;5136491;27;20050;-40
2023/09/01 01:45:03;;;;;;;3.03;1.42;;;12.60;99.90;;;;;;5137292;27;20107;-40
2023/09/01 01:47:30;;;;;;;4.10;1.73;;;12.50;99.90;;;;;;5136406;27;20399;-41
2023/09/01 01:49:55;;;;;;;3.58;1.40;;;12.50;99.90;;;;;;5136579;27;20035;-40
2023/09/01 01:52:21;;;;;;;3.97;1.60;;;12.40;99.90;;;;;;5136378;27;20140;-40
2023/09/01 01:54:46;;;;;;;3.50;1.40;;;12.40;99.90;;;;;;5117916;27;20054;-40
2023/09/01 01:57:14;;;;;;;3.83;1.60;;;12.40;99.90;;;;;;5136446;27;20103;-40
2023/09/01 01:59:40;;;;;;;3.25;1.27;;;12.40;99.90;;;;;;5136140;27;20051;-40
2023/09/01 02:02:06;;;;;;;3.17;1.45;;;12.30;99.90;;;;;;5136317;27;20090;-40
2023/09/01 02:04:32;;;;;;;5.15;1.20;;;12.30;99.90;;;;;;5136238;27;20078;-40
2023/09/01 02:06:58;;;;;;;3.25;1.30;;;12.20;99.90;;;;;;5134851;27;20054;-40
2023/09/01 02:09:25;;;;;;;3.70;1.17;;;12.20;99.90;;;;;;5136045;27;20047;-40
2023/09/01 02:11:51;;;;;;;2.72;1.25;;;12.20;99.90;;;;;;5117583;27;20043;-40
2023/09/01 02:14:16;;;;;;;3.60;1.37;;;12.10;99.90;;;;;;5136219;27;20502;-40
2023/09/01 02:16:43;;;;;;;2.47;1.10;;;12.00;99.90;;;;;;5136205;27;20499;-40
2023/09/01 02:19:11;;;;;;;4.18;1.40;;;12.00;99.90;;;;;;5136266;27;20073;-40
2023/09/01 02:21:37;;;;;;;3.10;1.20;;;12.00;99.90;;;;;;5117468;27;20050;-40
2023/09/01 02:24:05;;;;;;;3.92;1.23;;;11.90;99.90;;;;;;5117676;27;20122;-40
2023/09/01 02:26:31;;;;;;;2.85;1.15;;;11.90;99.90;;;;;;5135810;27;20086;-40
2023/09/01 02:28:57;;;;;;;3.05;1.20;;;11.80;99.90;;;;;;5117420;27;20083;-39
2023/09/01 02:31:24;;;;;;;3.00;1.27;;;11.80;99.90;;;;;;5135668;27;20035;-40
2023/09/01 02:33:50;;;;;;;2.15;1.02;;;11.80;99.90;;;;;;5135757;27;20047;-40
2023/09/01 02:36:30;;;;;;;3.00;0.98;;;11.80;99.90;;;;;;5135472;27;20126;-40
2023/09/01 02:38:57;;;;;;;3.33;1.15;;;11.80;99.90;;;;;;5135611;27;20059;-40
2023/09/01 02:41:23;;;;;;;2.40;0.80;;;11.80;99.90;;;;;;5117216;27;20166;-40
2023/09/01 02:43:49;;;;;;;;;;;11.80;99.90;;;;;;5117578;27;20042;-40
2023/09/01 02:46:15;;;;;;;2.83;1.00;;;11.80;99.90;;;;;;5135436;27;19926;-40
2023/09/01 02:48:41;;;;;;;2.85;1.08;;;11.80;99.90;;;;;;5135298;27;20045;-40
2023/09/01 02:51:07;;;;;;;5.43;1.30;;;11.80;99.90;;;;;;5135235;27;20122;-40
2023/09/01 02:53:33;;;;;;;1.98;0.80;;;11.80;99.90;;;;;;5135027;27;20456;-40
2023/09/01 02:55:59;;;;;;;2.88;0.98;;;11.90;99.90;;;;;;5135233;27;20047;-40
2023/09/01 02:58:25;;;;;;;2.72;1.00;;;11.80;99.90;;;;;;5135237;27;20100;-40
2023/09/01 03:00:51;;;;;;;2.60;0.80;;;11.80;99.90;;;;;;5135020;27;20046;-40
2023/09/01 03:03:20;;;;;;;2.95;1.10;;;11.70;99.90;;;;;;5117090;27;20047;-40
2023/09/01 03:05:48;;;;;;;2.20;0.80;;;11.70;99.90;;;;;;5134820;27;20047;-41
2023/09/01 03:08:14;;;;;;;2.05;0.90;;;11.60;99.90;;;;;;5135656;27;20047;-40
2023/09/01 03:10:41;;;;;;;1.98;0.73;;;11.60;99.90;;;;;;5135080;27;20051;-40
2023/09/01 03:13:07;;;;;;;2.03;0.98;;;11.60;99.90;;;;;;5116707;27;20130;-40
2023/09/01 03:15:32;;;;;;;2.72;0.90;;;11.60;99.90;;;;;;5134801;27;20130;-40
2023/09/01 03:17:58;;;;;;;2.33;0.90;;;11.60;99.90;;;;;;5134301;27;20047;-40
2023/09/01 03:20:24;;;;;;;1.67;0.80;;;11.60;99.90;;;;;;5134601;27;20118;-40
2023/09/01 03:22:50;;;;;;;1.45;0.73;;;11.60;99.90;;;;;;5134781;27;20039;-40
2023/09/01 03:25:17;;;;;;;2.17;0.77;;;11.60;99.90;;;;;;5134891;27;20100;-40
2023/09/01 03:27:43;;;;;;;1.90;0.80;;;11.60;99.90;;;;;;5134806;27;20123;-40
2023/09/01 03:30:10;;;;;;;2.10;0.80;;;11.60;99.90;;;;;;5134801;27;20096;-40
2023/09/01 03:32:37;;;;;;;5.13;1.00;;;11.50;99.90;;;;;;5134729;27;20047;-40
2023/09/01 03:35:03;;;;;;;;;;;11.50;99.90;;;;;;5116657;27;20499;-40
2023/09/01 03:37:29;;;;;;;2.97;1.00;;;11.50;99.90;;;;;;5116537;27;20403;-40
2023/09/01 03:39:54;;;;;;;1.63;0.70;;;11.40;99.90;;;;;;5134465;28;20043;-40
2023/09/01 03:42:20;;;;;;;2.63;0.83;;;11.40;99.90;;;;;;5134642;28;20047;-40
2023/09/01 03:44:46;;;;;;;2.23;0.93;;;11.40;99.90;;;;;;5134543;28;20047;-40
2023/09/01 03:47:13;;;;;;;2.37;0.67;;;11.30;99.90;;;;;;5134440;28;20043;-40
2023/09/01 03:49:39;;;;;;;2.33;1.00;;;11.30;99.90;;;;;;5115949;28;20537;-40
2023/09/01 03:52:04;;;;;;;1.90;0.80;;;11.30;99.90;;;;;;5134776;28;20043;-40
2023/09/01 03:54:30;;;;;;;3.00;0.80;;;11.20;99.90;;;;;;5134480;28;20722;-40
2023/09/01 03:56:56;;;;;;;1.83;0.63;;;11.20;99.90;;;;;;5134384;28;20058;-40
2023/09/01 03:59:22;;;;;;;3.23;1.00;;;11.20;99.90;;;;;;5134180;28;20086;-40
2023/09/01 04:01:47;;;;;;;2.78;0.90;;;11.20;99.90;;;;;;5134283;28;20039;-40
2023/09/01 04:04:14;;;;;;;2.07;0.80;;;11.20;99.90;;;;;;5134236;28;20054;-40
2023/09/01 04:06:40;;;;;;;1.88;0.82;;;11.20;99.90;;;;;;5134653;28;20043;-40
2023/09/01 04:09:06;;;;;;;2.17;0.90;;;11.20;99.90;;;;;;5134351;28;20043;-40
2023/09/01 04:11:32;;;;;;;2.13;0.80;;;11.20;99.90;;;;;;5134386;28;20383;-40
2023/09/01 04:13:58;;;;;;;1.67;0.80;;;11.20;99.90;;;;;;5134409;28;20039;-40
2023/09/01 04:16:24;;;;;;;2.30;0.93;;;11.20;99.90;;;;;;5134246;28;20051;-40
2023/09/01 04:18:51;;;;;;;2.22;0.68;;;11.20;99.90;;;;;;5134188;28;20051;-40
2023/09/01 04:21:17;;;;;;;1.90;0.80;;;11.20;99.90;;;;;;5134173;28;20047;-40
2023/09/01 04:23:43;;;;;;;2.17;0.80;;;11.20;99.90;;;;;;5134218;28;20047;-40
2023/09/01 04:26:09;;;;;;;2.22;0.93;;;11.10;99.90;;;;;;5134087;28;20066;-40
2023/09/01 04:28:34;;;;;;;3.00;0.90;;;11.10;99.90;;;;;;5134315;27;20047;-40
2023/09/01 04:31:02;;;;;;;1.73;0.60;;;11.10;99.90;;;;;;5138074;27;20039;-39
2023/09/01 04:33:28;;;;;;;2.15;0.77;;;11.10;99.90;;;;;;5137876;27;20042;-40
2023/09/01 04:36:03;;;;;;;2.03;0.90;;;11.10;99.90;;;;;;5137967;27;20480;-40
2023/09/01 04:38:29;;;;;;;2.50;0.88;;;11.10;99.90;;;;;;5119796;27;20058;-40
2023/09/01 04:40:59;;;;;;;1.63;0.75;;;11.20;99.90;;;;;;5137720;27;20035;-40
2023/09/01 04:43:26;;;;;;;2.05;0.90;;;11.10;99.90;;;;;;5137720;27;20039;-40
2023/09/01 04:45:53;;;;;;;1.85;0.75;;;11.10;99.90;;;;;;5137628;27;20051;-40
2023/09/01 04:48:19;;;;;;;;;;;11.10;99.90;;;;;;5138168;27;20047;-40
2023/09/01 04:50:45;;;;;;;2.30;0.70;;;11.00;99.90;;;;;;5137660;27;19923;-40
2023/09/01 04:53:10;;;;;;;2.43;0.90;;;11.00;99.90;;;;;;5137665;27;20050;-40
2023/09/01 04:55:36;;;;;;;4.07;0.90;;;11.00;99.90;;;;;;5137664;27;20039;-40
2023/09/01 04:58:02;;;;;;;3.10;1.10;;;11.00;99.90;;;;;;5137585;27;20083;-40
2023/09/01 05:00:28;;;;;;;2.70;0.80;;;10.90;99.90;;;;;;5137007;27;20051;-40
2023/09/01 05:02:53;;;;;;;1.40;0.80;;;11.00;99.90;;;;;;5137522;27;20364;-40
2023/09/01 05:05:19;;;;;;;2.50;1.10;;;11.00;99.90;;;;;;5137429;27;20050;-40
2023/09/01 05:07:45;;;;;;;3.90;1.30;;;11.00;99.90;;;;;;5137373;27;20099;-40
2023/09/01 05:10:10;;;;;;;2.53;1.10;;;11.10;99.90;;;;;;5137330;27;20075;-40
2023/09/01 05:12:36;;;;;;;3.43;1.23;;;11.00;99.90;;;;;;5137339;27;20544;-40
2023/09/01 05:15:03;;;;;;;2.77;1.13;;;11.10;99.90;;;;;;5137184;27;20488;-40
2023/09/01 05:17:29;;;;;;;3.28;1.50;;;11.00;99.90;;;;;;5137187;27;20625;-40
2023/09/01 05:19:57;;;;;;;2.58;1.00;;;11.00;99.90;;;;;;5136993;27;20046;-40
2023/09/01 05:22:23;;;;;;;2.25;1.10;;;11.00;99.90;;;;;;5137082;27;20399;-40
2023/09/01 05:24:49;;;;;;;2.92;1.20;;;11.00;99.90;;;;;;5137230;27;20053;-40
2023/09/01 05:27:19;;;;;;;4.23;1.30;;;11.10;99.90;;;;;;5137029;27;20046;-40
2023/09/01 05:29:48;;;;;;;2.85;1.20;;;11.10;99.90;;;;;;5136634;27;20051;-40
2023/09/01 05:32:15;;;;;;;2.13;1.00;;;11.10;99.90;;;;;;5118851;27;20050;-40
2023/09/01 05:34:40;;;;;;;3.45;1.15;;;11.10;99.90;;;;;;5136758;27;20050;-40
2023/09/01 05:37:07;;;;;;;3.07;1.10;;;11.10;99.90;;;;;;5137061;27;20047;-40
2023/09/01 05:39:34;;;;;;;2.75;1.17;;;11.20;99.90;;;;;;5136615;27;20437;-40
2023/09/01 05:42:00;;;;;;;5.22;1.48;;;11.20;99.90;;;;;;5136494;27;20476;-40
2023/09/01 05:44:25;;;;;;;2.83;1.37;;;11.20;99.90;;;;;;5136522;27;20043;-40
2023/09/01 05:46:51;;;;;;;4.00;1.40;;;11.20;99.90;;;;;;5118193;27;20548;-40
2023/09/01 05:49:17;;;;;;;2.77;1.30;;;11.30;99.90;;;;;;5119010;27;20061;-40
2023/09/01 05:51:43;;;;;;;3.63;1.45;;;11.30;99.90;;;;;;5136455;27;20079;-40
2023/09/01 05:54:09;;;;;;;3.97;1.30;;;11.40;99.90;;;;;;5136494;27;20530;-40
2023/09/01 05:56:34;;;;;;;6.87;1.13;;;11.50;99.90;;;;;;5136287;27;20407;-40
2023/09/01 05:59:00;;;;;;;4.20;1.43;;;11.50;99.90;;;;;;5135990;27;20047;-40
2023/09/01 06:01:32;;;;;;;3.03;1.30;;;11.60;99.90;;;;;;5136246;27;20043;-40
2023/09/01 06:03:58;;;;;;;2.40;1.27;;;11.70;99.90;;;;;;5136635;27;20074;-40
2023/09/01 06:06:23;;;;;;;3.00;1.03;;;11.70;99.90;;;;;;5136139;27;20042;-40
2023/09/01 06:08:49;;;;;;;3.57;1.33;;;11.80;99.90;;;;;;5118006;27;20487;-40
2023/09/01 06:11:15;;;;;;;3.20;1.47;;;11.90;99.90;;;;;;5136005;27;20551;-40
2023/09/01 06:13:40;;;;;;;3.43;1.20;;;12.00;99.90;;;;;;5135804;27;20043;-40
2023/09/01 06:16:09;;;;;;;4.35;1.48;;;12.10;99.90;;;;;;5117962;27;20051;-40
2023/09/01 06:18:34;;;;;;;3.67;1.20;;;12.20;99.90;;;;;;5117889;27;20445;-40
2023/09/01 06:21:00;;;;;;;3.97;1.30;;;12.30;99.90;;;;;;5135970;27;20046;-40
2023/09/01 06:23:26;;;;;;;4.20;1.37;;;12.50;99.90;;;;;;5135776;27;20491;-40
2023/09/01 06:25:51;;;;;;;3.90;1.30;;;12.60;99.90;;;;;;5135843;27;20043;-40
2023/09/01 06:28:17;;;;;;;3.30;1.40;;;12.70;99.90;;;;;;5135542;27;20498;-40
2023/09/01 06:30:43;;;;;;;3.00;1.10;;;12.80;99.90;;;;;;5117669;27;20368;-40
2023/09/01 06:33:09;;;;;;;4.67;1.20;;;12.90;99.90;;;;;;5117250;27;20076;-40
2023/09/01 06:35:35;;;;;;;4.35;1.38;;;13.00;99.90;;;;;;5135739;27;20082;-40
2023/09/01 06:38:04;;;;;;;3.97;1.42;;;13.10;99.90;;;;;;5135702;27;20039;-40
2023/09/01 06:40:30;;;;;;;2.63;1.25;;;13.20;99.90;;;;;;5135344;27;20043;-41
2023/09/01 06:42:56;;;;;;;3.70;1.50;;;13.20;99.90;;;;;;5135207;27;20047;-40
2023/09/01 06:45:22;;;;;;;3.40;1.47;;;13.30;99.90;;;;;;5135077;27;20288;-40
2023/09/01 06:47:52;;;;;;;3.65;1.50;;;13.40;99.90;;;;;;5117239;27;20051;-40
2023/09/01 06:50:19;;;;;;;4.15;1.17;;;13.40;99.90;;;;;;5135516;27;20043;-40
2023/09/01 06:52:45;;;;;;;3.60;1.33;;;13.50;99.90;;;;;;5134552;27;20047;-40
2023/09/01 06:55:12;;;;;;;3.67;1.38;;;13.50;99.90;;;;;;5135253;27;20411;-40
2023/09/01 06:57:38;;;;;;;4.85;1.45;;;13.60;99.90;;;;;;5135259;27;20047;-40
2023/09/01 07:00:05;;;;;;;2.95;1.10;;;13.60;99.90;;;;;;5134999;27;20054;-40
2023/09/01 07:02:31;;;;;;;;;;;13.60;99.90;;;;;;5135891;27;20047;-40
2023/09/01 07:04:57;;;;;;;4.72;1.52;;;13.60;99.90;;;;;;5117219;27;19919;-40
2023/09/01 07:07:22;;;;;;;4.47;1.85;;;13.70;99.90;;;;;;5134981;27;20051;-40
2023/09/01 07:09:48;;;;;;;5.83;1.60;;;13.70;99.90;;;;;;5116710;27;20074;-40
2023/09/01 07:12:14;;;;;;;4.25;1.73;;;13.80;99.90;;;;;;5135291;27;20387;-40
2023/09/01 07:14:40;;;;;;;3.92;1.60;;;13.80;99.90;;;;;;5134799;27;20512;-40
2023/09/01 07:17:06;;;;;;;3.70;1.63;;;13.90;99.90;;;;;;5134912;27;20130;-40
2023/09/01 07:19:32;;;;;;;3.47;1.50;;;14.00;99.90;;;;;;5116777;27;20082;-40
2023/09/01 07:21:57;;;;;;;2.87;1.40;;;14.10;99.90;;;;;;5134670;27;20299;-41
2023/09/01 07:24:23;;;;;;;2.90;1.23;;;14.10;99.90;;;;;;5134801;27;20086;-41
2023/09/01 07:26:49;;;;;;;5.30;1.20;;;14.20;99.90;;;;;;5134753;27;20054;-40
2023/09/01 07:29:14;;;;;;;4.23;1.30;;;14.20;99.90;;;;;;5135038;27;20085;-40
2023/09/01 07:31:40;;;;;;;3.50;1.33;;;14.20;99.90;;;;;;5134658;27;20046;-40
2023/09/01 07:34:05;;;;;;;5.67;1.33;;;14.30;99.90;;;;;;5134738;27;20146;-40
2023/09/01 07:36:31;;;;;;;5.57;1.60;;;14.30;99.90;;;;;;5099496;27;20084;-40
2023/09/01 07:38:57;;;;;;;4.93;1.27;;;14.30;99.90;;;;;;5134372;27;20043;-41
2023/09/01 07:41:22;;;;;;;4.73;1.50;;;14.30;99.90;;;;;;5116240;28;20048;-40
2023/09/01 07:43:49;;;;;;;4.47;1.97;;;14.30;99.90;;;;;;5135021;28;20399;-40
2023/09/01 07:46:15;;;;;;;4.95;1.75;;;14.30;99.90;;;;;;5135019;28;20491;-40
2023/09/01 07:48:40;;;;;;;4.22;1.63;;;14.40;99.90;;;;;;5116315;28;20078;-40
2023/09/01 07:51:06;;;;;;;8.47;2.70;;;14.40;99.90;;;;;;5134436;28;20131;-41
2023/09/01 07:53:32;;;;;;;3.40;1.40;;;14.40;99.90;;;;;;5134484;28;20276;-40
2023/09/01 07:55:58;;;;;;;3.30;1.30;;;14.40;99.90;;;;;;5134481;28;20043;-40
2023/09/01 07:58:23;;;;;;;3.30;1.27;;;14.50;99.90;;;;;;5116895;28;20043;-40
2023/09/01 08:00:51;;;;;;;4.00;1.30;;;14.50;99.90;;;;;;5134164;28;20055;-40
2023/09/01 08:03:16;;;;;;;4.70;1.00;;;14.60;99.90;;;;;;5135504;27;20283;-40
2023/09/01 08:05:42;;;;;;;4.27;1.30;;;14.60;99.90;;;;;;5138469;27;20043;-40
2023/09/01 08:08:08;;;;;;;8.20;1.20;;;14.60;99.90;;;;;;5138276;27;20273;-41
2023/09/01 08:10:34;;;;;;;2.35;0.90;;;14.60;99.90;;;;;;5103447;27;20134;-40
2023/09/01 08:13:00;;;;;;;3.42;1.10;;;14.60;99.90;;;;;;5138487;27;20083;-40
2023/09/01 08:15:25;;;;;;;4.57;1.23;;;14.70;99.90;;;;;;5120304;27;20053;-41
2023/09/01 08:17:53;;;;;;;3.50;1.07;;;14.70;99.90;;;;;;5138461;27;20050;-40
2023/09/01 08:20:18;;;;;;;2.28;0.77;;;14.70;99.90;;;;;;5137995;27;20039;-40
2023/09/01 08:22:45;;;;;;;4.17;1.00;;;14.80;99.90;;;;;;5138214;27;20087;-40
2023/09/01 08:25:10;;;;;;;1.92;0.85;;;14.80;99.90;;;;;;5138189;27;20284;-40
2023/09/01 08:27:36;;;;;;;1.87;0.70;;;14.80;99.90;;;;;;5138425;27;20415;-40
2023/09/01 08:30:03;;;;;;;1.75;0.60;;;14.90;99.90;;;;;;5138108;27;20039;-40
2023/09/01 08:32:29;;;;;;;1.83;0.70;;;14.90;99.90;;;;;;5137961;27;20061;-40
2023/09/01 08:34:54;;;;;;;1.50;0.50;;;14.90;99.90;;;;;;5103199;27;20043;-40
2023/09/01 08:37:20;;;;;;;1.87;0.83;;;14.90;99.90;;;;;;5137857;27;20307;-41
2023/09/01 08:39:46;;;;;;;1.83;0.60;;;15.00;99.90;;;;;;5137784;27;20039;-41
2023/09/01 08:42:13;;;;;;;1.80;0.50;;;15.00;99.90;;;;;;5137566;27;20449;-40
2023/09/01 08:44:41;;;;;;;1.85;0.60;;;15.00;99.90;;;;;;5119773;27;20059;-40
2023/09/01 08:47:09;;;;;;;2.42;0.60;;;15.00;99.90;;;;;;5154126;27;20069;-39
2023/09/01 08:49:35;;;;;;;3.30;0.73;;;15.00;99.90;;;;;;5137661;27;20089;-40
2023/09/01 08:52:02;;;;;;;3.85;1.13;;;15.10;99.90;;;;;;5137627;27;20047;-40
2023/09/01 08:54:30;;;;;;;2.30;0.50;;;15.10;99.90;;;;;;5137736;27;20042;-40
2023/09/01 08:56:55;;;;;;;3.38;0.75;;;15.20;99.90;;;;;;5137758;27;20047;-40
2023/09/01 08:59:24;;;;;;;3.03;0.50;;;15.20;99.90;;;;;;5137364;27;20043;-40
2023/09/01 09:01:49;;;;;;;2.03;0.80;;;15.20;99.90;;;;;;5137425;27;20297;-39
2023/09/01 09:04:15;;;;;;;3.17;0.80;;;15.30;99.90;;;;;;5119520;27;20395;-39
2023/09/01 09:06:42;;;;;;;2.22;0.70;;;15.30;99.90;;;;;;5119110;27;20043;-40
2023/09/01 09:09:15;;;;;;;1.38;0.50;;;15.30;99.90;;;;;;5137390;27;20517;-40
2023/09/01 09:11:59;;;;;;;2.30;0.80;;;15.40;99.90;;;;;;5137452;27;20147;-40
2023/09/01 09:14:30;;;;;;;3.13;1.55;;;15.40;99.90;;;;;;5118814;27;20152;-40
2023/09/01 09:16:57;;;;;;;3.85;0.60;;;15.40;99.90;;;;;;5136955;27;20096;-40
2023/09/01 09:19:24;;;;;;;2.88;0.70;;;15.40;99.90;;;;;;5137278;27;20086;-40
2023/09/01 09:22:06;;;;;;;1.88;0.70;;;15.40;99.90;;;;;;5137042;27;20039;-40
2023/09/01 09:24:36;;;;;;;4.05;0.73;;;15.50;99.90;;;;;;5136948;27;20047;-40
2023/09/01 09:27:06;;;;;;;2.97;0.80;;;15.50;99.90;;;;;;5137021;27;20043;-40
2023/09/01 09:29:42;;;;;;;3.85;0.68;;;15.50;99.90;;;;;;5118363;27;20053;-40
2023/09/01 09:32:21;;;;;;;2.75;0.68;;;15.50;99.90;;;;;;5136929;27;20039;-40
2023/09/01 09:35:10;;;;;;;3.00;0.68;;;15.50;99.90;;;;;;5136945;27;20057;-40
2023/09/01 09:37:39;;;;;;;1.63;0.70;;;15.60;99.90;;;;;;5136842;27;20135;-40
2023/09/01 09:40:12;;;;;;;5.15;0.70;;;15.60;99.90;;;;;;5136430;27;20051;-40
2023/09/01 09:42:39;;;;;;;1.40;0.50;;;15.60;99.90;;;;;;5136656;27;20404;-40
2023/09/01 09:45:06;;;;;;;;;;;15.70;99.90;;;;;;5137255;27;20051;-40
2023/09/01 09:47:32;;;;;;;1.23;0.60;;;15.70;99.90;;;;;;5136721;27;20011;-40
2023/09/01 09:50:00;;;;;;;1.33;0.65;;;15.70;99.90;;;;;;5136555;27;20051;-40
2023/09/01 09:52:29;;;;;;;2.25;0.90;;;15.70;99.90;;;;;;5136439;27;20042;-40
2023/09/01 09:55:00;;;;;;;2.50;0.77;;;15.80;99.90;;;;;;5136382;27;20089;-40
2023/09/01 09:57:26;;;;;;;2.47;0.70;;;15.80;99.90;;;;;;5136768;27;20043;-40
2023/09/01 10:00:06;;;;;;;3.15;0.60;;;15.80;99.90;;;;;;5136308;27;20138;-40
2023/09/01 10:02:55;;;;;;;2.58;0.60;;;15.90;99.90;;;;;;5136559;27;20051;-40
2023/09/01 10:05:24;;;;;;;;;;;15.90;99.90;;;;;;5136726;27;20100;-40
2023/09/01 10:07:50;;;;;;;2.88;0.68;;;15.90;99.90;;;;;;5135962;27;20398;-39
2023/09/01 10:10:17;;;;;;;2.70;0.70;;;15.90;99.90;;;;;;5136321;27;20078;-40
2023/09/01 10:12:43;;;;;;;1.80;0.50;;;15.90;99.90;;;;;;5136114;27;20477;-40
2023/09/01 10:15:12;;;;;;;1.70;0.57;;;16.00;99.90;;;;;;5135840;27;20083;-40
2023/09/01 10:17:39;;;;;;;3.25;0.68;;;16.00;99.90;;;;;;5135684;27;20035;-40
2023/09/01 10:20:07;;;;;;;1.85;0.50;;;16.00;99.90;;;;;;5118040;27;20043;-40
2023/09/01 10:22:38;;;;;;;1.90;0.68;;;16.00;99.90;;;;;;5135891;27;20050;-40
2023/09/01 10:25:17;;;;;;;1.63;0.52;;;16.00;99.90;;;;;;5136069;27;20055;-40
2023/09/01 10:28:02;;;;;;;2.63;0.90;;;16.10;99.90;;;;;;5134712;27;20043;-40
2023/09/01 10:30:39;;;;;;;1.83;0.77;;;16.10;99.90;;;;;;5135847;27;20054;-40
2023/09/01 10:33:06;;;;;;;;;;;16.20;99.90;;;;;;5136385;27;20449;-40
2023/09/01 10:35:47;;;;;;;3.22;0.73;;;16.30;99.90;;;;;;5135673;27;19926;-40
2023/09/01 10:38:15;;;;;;;1.88;0.43;;;16.30;99.90;;;;;;5135615;27;20062;-41
2023/09/01 10:40:48;;;;;;;2.38;0.70;;;16.40;99.90;;;;;;5117149;27;20410;-40
2023/09/01 10:43:41;;;;;;;1.65;0.60;;;16.40;99.90;;;;;;5135546;27;20093;-40
2023/09/01 10:46:19;;;;;;;2.05;0.50;;;16.50;99.90;;;;;;5111704;27;20059;-40
2023/09/01 10:48:59;;;;;;;2.70;0.50;;;16.50;99.90;;;;;;5135480;27;20043;-41
2023/09/01 10:51:25;;;;;;;2.30;0.40;;;16.60;99.90;;;;;;5117316;27;20054;-40
2023/09/01 10:53:56;;;;;;;0.80;0.40;;;16.60;99.90;;;;;;5135371;27;20426;-40
2023/09/01 10:56:23;;;;;;;1.38;0.40;;;16.60;99.90;;;;;;5135369;27;20047;-40
2023/09/01 10:58:50;;;;;;;1.60;0.60;;;16.70;99.90;;;;;;5135288;27;20094;-40
2023/09/01 11:01:35;;;;;;;2.28;0.60;;;16.70;99.90;;;;;;5135382;27;20485;-41
2023/09/01 11:04:27;;;;;;;1.15;0.57;;;16.90;99.90;;;;;;5135212;27;20130;-40
2023/09/01 11:07:03;;;;;;;3.92;0.80;;;17.10;99.90;;;;;;5132684;27;20051;-40
2023/09/01 11:09:34;;;;;;;2.45;0.90;;;17.20;99.90;;;;;;5134952;27;20116;-40
2023/09/01 11:12:05;;;;;;;4.90;0.70;;;17.30;99.90;;;;;;5116419;27;20050;-40
2023/09/01 11:14:32;;;;;;;1.90;0.60;;;17.50;99.90;;;;;;5134967;27;20054;-40
2023/09/01 11:17:00;;;;;;;1.80;0.68;;;17.60;99.90;;;;;;5134858;27;20043;-40
2023/09/01 11:19:26;;;;;;;3.28;0.65;;;17.70;99.90;;;;;;5134777;27;20046;-40
2023/09/01 11:21:52;;;;;;;2.40;0.75;;;17.90;99.90;;;;;;5134596;27;20049;-40
2023/09/01 11:24:22;;;;;;;2.28;0.50;;;18.00;99.90;;;;;;5116312;27;20047;-40
2023/09/01 11:26:54;;;;;;;2.33;0.70;;;18.00;99.90;;;;;;5134994;27;20050;-40
2023/09/01 11:29:20;;;;;;;2.60;0.52;;;18.00;99.90;;;;;;5134827;27;20092;-40
2023/09/01 11:31:46;;;;;;;2.35;0.75;;;18.00;99.90;;;;;;5134794;27;20380;-40
2023/09/01 11:34:13;;;;;;;2.80;0.60;;;18.10;99.90;;;;;;5134581;27;20073;-41
2023/09/01 11:36:49;;;;;;;2.88;0.80;;;18.00;99.90;;;;;;5134543;27;20104;-40
2023/09/01 11:39:16;;;;;;;2.75;0.80;;;18.00;99.90;;;;;;5134695;27;20075;-40
2023/09/01 11:41:43;;;;;;;1.80;0.80;;;18.10;99.90;;;;;;5134834;27;20039;-40
2023/09/01 11:44:09;;;;;;;2.33;0.85;;;18.20;99.90;;;;;;5134737;28;20084;-40
2023/09/01 11:46:37;;;;;;;3.17;1.00;;;18.40;99.90;;;;;;5134691;28;20054;-40
2023/09/01 11:49:04;;;;;;;2.40;1.02;;;18.60;99.90;;;;;;5116384;28;20075;-40
2023/09/01 11:51:31;;;;;;;2.75;0.80;;;18.70;99.90;;;;;;5134266;28;20051;-41
2023/09/01 11:53:57;;;;;;;2.58;0.85;;;18.80;99.90;;;;;;5134237;28;20497;-41
2023/09/01 11:56:23;;;;;;;2.30;0.90;;;19.00;99.90;;;;;;5134436;28;20126;-41
2023/09/01 11:58:50;;;;;;;1.95;0.70;;;19.10;99.90;;;;;;5134450;28;20119;-40
2023/09/01 12:01:18;;;;;;;3.63;1.13;;;19.20;99.90;;;;;;5134027;28;20070;-40
2023/09/01 12:03:49;;;;;;;2.63;0.70;;;19.30;99.90;;;;;;5134518;28;20192;-41
2023/09/01 12:06:24;;;;;;;2.35;0.50;;;19.30;99.90;;;;;;5134037;28;20503;-41
2023/09/01 12:08:53;;;;;;;2.80;0.80;;;19.40;99.90;;;;;;5134096;28;20533;-40
2023/09/01 12:11:19;;;;;;;1.77;0.60;;;19.40;99.90;;;;;;5134311;28;20050;-41
2023/09/01 12:13:46;;;;;;;1.42;0.43;;;19.50;99.90;;;;;;5134153;28;20046;-41
2023/09/01 12:16:24;;;;;;;3.20;0.80;;;19.50;99.90;;;;;;5134286;28;20043;-41
2023/09/01 12:18:51;;;;;;;3.17;0.70;;;19.50;99.90;;;;;;5134306;28;20061;-41
2023/09/01 12:21:17;;;;;;;2.40;0.65;;;19.50;99.90;;;;;;5116017;28;20048;-41
2023/09/01 12:23:44;;;;;;;2.40;0.70;;;19.40;99.90;;;;;;5134187;28;20043;-41
2023/09/01 12:26:12;;;;;;;2.95;0.73;;;19.30;99.90;;;;;;5134078;28;20054;-41
2023/09/01 12:28:41;;;;;;;1.67;0.65;;;19.20;99.90;;;;;;5134106;28;20418;-41
2023/09/01 12:31:07;;;;;;;2.72;0.70;;;19.10;99.90;;;;;;5115906;28;20083;-41
2023/09/01 12:33:34;;;;;;;1.92;0.70;;;19.00;99.90;;;;;;5134159;28;20059;-41
2023/09/01 12:36:00;;;;;;;3.88;0.68;;;19.10;99.90;;;;;;5116066;28;20122;-41
2023/09/01 12:38:26;;;;;;;2.67;0.82;;;19.20;99.90;;;;;;5134078;28;20126;-41
2023/09/01 12:40:52;;;;;;;3.75;1.42;;;19.40;99.90;;;;;;5133723;28;20031;-41
2023/09/01 12:43:18;;;;;;;;;;;19.60;99.90;;;;;;5134301;28;20109;-41
2023/09/01 12:45:44;;;;;;;2.88;0.95;;;19.70;99.90;;;;;;5133906;28;20360;-41
2023/09/01 12:48:14;;;;;;;3.08;0.50;;;19.90;99.90;;;;;;5134075;28;20039;-41
2023/09/01 12:50:44;;;;;;;3.83;0.90;;;20.00;99.90;;;;;;5135687;27;20554;-41
2023/09/01 12:53:10;;;;;;;3.95;1.05;;;20.10;99.90;;;;;;5138165;27;20035;-41